Metar z pełnej godziny Komunikat METAR ze strony awiacja.imgw.pl Metar G00 EPZG METAR EPZG 172100Z 00000KT 3000 BCFG BR NSC 07/07 Q1020 =